Terminal Aerodrome Forecast
Issued by NWS

Home | Current Version | Previous Version | Text Only | Print | Product List | Glossary On
Versions: 1 2 3 4 5 6 7 8 9 10 11 12 13 14 15 16 17 18 19 20 21 22 23 24 25
000
FTUS41 KCAR 011720
TAFBHB
TAF
KBHB 011720Z 0118/0218 30018KT P6SM FEW250
     FM020400 33009KT P6SM SCT250
     FM021200 06009KT P6SM OVC030
     FM021400 06011KT 2SM -SN OVC025
     FM021500 06015KT 1/2SM SN OVC008
      AMD LTD TO CLD VIS AND WIND=

USA.gov is the U.S. government's official web portal to all federal, state and local government web resources and services.